Las Vegas, Nevada
Traffic Map
Current Weather Conditions
Las Vegas, Nevada
Broken Clouds
Broken Clouds
55°
Feels Like: 55°
Wind Chill: 55° Ceiling: 25000
Heat Index: 55° Visibility: 10mi
Dew Point: 48° Wind: 6mph
Humidity: 77% Direction: 200° (SSW)
Pressure: 29.81in Gusts: 0mph
Raw Report DataKLAS 011056Z 20005KT 10SM FEW095 SCT120 BKN250 13/09 A2981 RMK AO2 SLP083 T01280089 $
Traffic Incident Summary
Active as of:
Severity:
Category:
InformationThere was an issue retrieving the traffic information for this location. Please try a different location or try again shortly.
Advertisements
Track Severe Weather on mobile